Time;durP1;ratioP1;P1;durP2;ratioP2;P2;SDS_P1;SDS_P2;PMS_P1;PMS_P2;Temp;Humidity;BMP_temperature;BMP_pressure;BME280_temperature;BME280_humidity;BME280_pressure;Samples;Min_cycle;Max_cycle;Signal;HPM_P1;HPM_P2
2022/08/29 00:01:04;;;;;;;3.42;2.38;;;;;;;14.30;nan;102144.03;5053818;28;20472;-61
2022/08/29 00:03:29;;;;;;;6.55;3.22;;;;;;;14.25;nan;102132.66;5053570;28;20217;-61
2022/08/29 00:05:54;;;;;;;3.90;3.10;;;;;;;14.03;nan;102098.84;5036020;28;20128;-63
2022/08/29 00:08:20;;;;;;;6.20;2.90;;;;;;;14.28;nan;102154.63;5053801;28;20126;-61
2022/08/29 00:10:46;;;;;;;5.35;2.50;;;;;;;14.18;nan;102131.09;5035221;28;20090;-61
2022/08/29 00:13:13;;;;;;;3.53;2.40;;;;;;;14.25;nan;102140.59;5035570;28;20048;-65
2022/08/29 00:15:39;;;;;;;5.10;2.05;;;;;;;14.26;nan;102145.88;5053230;28;20056;-60
2022/08/29 00:18:06;;;;;;;3.60;2.35;;;;;;;14.23;nan;102134.50;5035557;28;20396;-62
2022/08/29 00:20:33;;;;;;;5.45;2.70;;;;;;;14.12;nan;102124.19;5053220;28;20061;-61
2022/08/29 00:22:59;;;;;;;3.67;2.35;;;;;;;13.84;nan;102079.03;5035707;28;20037;-60
2022/08/29 00:25:25;;;;;;;9.95;3.03;;;;;;;13.85;nan;102090.50;5018939;28;20035;-61
2022/08/29 00:27:50;;;;;;;6.57;3.38;;;;;;;13.86;nan;102098.41;5035411;28;20098;-61
2022/08/29 00:30:16;;;;;;;5.35;3.22;;;;;;;13.77;nan;102097.78;5053089;28;20400;-61
2022/08/29 00:32:42;;;;;;;4.75;2.97;;;;;;;14.02;nan;102149.16;5035228;28;20469;-61
2022/08/29 00:35:11;;;;;;;3.53;2.50;;;;;;;14.01;nan;102156.22;5053247;28;20124;-61
2022/08/29 00:37:37;;;;;;;4.32;2.45;;;;;;;13.96;nan;102160.78;5053129;28;20088;-64
2022/08/29 00:40:04;;;;;;;5.47;3.15;;;;;;;13.65;nan;102106.00;5018404;28;20487;-61
2022/08/29 00:42:30;;;;;;;7.20;3.13;;;;;;;13.83;nan;102140.84;5052921;28;20210;-60
2022/08/29 00:44:55;;;;;;;4.97;2.80;;;;;;;13.78;nan;102149.75;5053089;28;20128;-61
2022/08/29 00:47:26;;;;;;;7.20;2.72;;;;;;;13.71;nan;102148.19;5017880;28;20040;-61
2022/08/29 00:49:53;;;;;;;7.32;3.15;;;;;;;13.65;nan;102151.88;5034975;28;20094;-61
2022/08/29 00:52:27;;;;;;;4.72;2.63;;;;;;;13.60;nan;102143.16;5052081;28;20051;-62
2022/08/29 00:54:54;;;;;;;5.95;2.92;;;;;;;13.53;nan;102141.56;5034737;28;20427;-61
2022/08/29 00:57:21;;;;;;;4.38;2.90;;;;;;;13.46;nan;102135.56;5034423;28;20029;-61
2022/08/29 00:59:47;;;;;;;4.28;3.17;;;;;;;13.43;nan;102135.63;5017990;28;20044;-62
2022/08/29 01:02:13;;;;;;;5.70;3.78;;;;;;;13.41;nan;102134.81;5052788;28;20408;-62
2022/08/29 01:04:38;;;;;;;4.53;3.30;;;;;;;13.33;nan;102126.19;5034589;28;20029;-61
2022/08/29 01:07:04;;;;;;;8.65;3.90;;;;;;;12.99;nan;102078.44;5052676;28;20503;-61
2022/08/29 01:09:30;;;;;;;5.07;3.53;;;;;;;13.30;nan;102151.81;5052428;28;20041;-62
2022/08/29 01:15:05;;;;;;;12.18;4.68;;;;;;;13.21;nan;102154.66;4998719;28;20132;-59
2022/08/29 01:17:35;;;;;;;8.45;4.70;;;;;;;12.82;nan;102104.38;5011658;28;20041;-61
2022/08/29 01:20:24;;;;;;;6.93;4.38;;;;;;;13.14;nan;102163.63;5034656;28;20044;-64
2022/08/29 01:23:10;;;;;;;7.57;5.40;;;;;;;13.09;nan;102162.88;5033857;28;20057;-61
2022/08/29 01:25:38;;;;;;;10.25;5.10;;;;;;;13.05;nan;102147.97;5034544;28;20031;-61
2022/08/29 01:28:14;;;;;;;8.57;5.07;;;;;;;13.04;nan;102162.06;5034457;28;20043;-61
2022/08/29 01:31:00;;;;;;;7.47;4.97;;;;;;;13.01;nan;102159.50;5034386;28;20114;-60
2022/08/29 01:33:26;;;;;;;7.93;5.18;;;;;;;12.68;nan;102093.25;5051442;28;20415;-60
2022/08/29 01:35:51;;;;;;;8.50;5.20;;;;;;;12.94;nan;102140.25;5052384;28;20036;-61
2022/08/29 01:38:26;;;;;;;8.88;5.43;;;;;;;12.93;nan;102149.06;5034593;28;20051;-62
2022/08/29 01:40:56;;;;;;;8.95;4.80;;;;;;;12.57;nan;102091.72;5052065;28;20040;-60
2022/08/29 01:43:22;;;;;;;8.30;4.63;;;;;;;12.54;nan;102082.09;5052012;28;20037;-61
2022/08/29 01:45:48;;;;;;;8.55;4.70;;;;;;;12.41;nan;102065.63;5051906;28;20139;-60
2022/08/29 01:48:14;;;;;;;8.30;4.65;;;;;;;12.81;nan;102139.63;5052189;28;20357;-62
2022/08/29 01:50:39;;;;;;;8.45;4.43;;;;;;;12.82;nan;102140.50;5051981;28;20083;-61
2022/08/29 01:53:04;;;;;;;6.72;5.18;;;;;;;12.56;nan;102098.78;5052031;28;20075;-61
2022/08/29 01:55:30;;;;;;;11.07;5.40;;;;;;;12.80;nan;102143.19;5052159;28;20037;-63
2022/08/29 01:57:55;;;;;;;8.90;5.00;;;;;;;12.84;nan;102147.50;5051930;28;20033;-59
2022/08/29 02:00:20;;;;;;;7.50;4.95;;;;;;;12.76;nan;102130.94;5051639;28;20028;-61
2022/08/29 02:02:46;;;;;;;7.05;4.90;;;;;;;12.82;nan;102141.38;5051713;28;20043;-60
2022/08/29 02:05:11;;;;;;;7.22;4.80;;;;;;;12.71;nan;102134.56;5034063;28;20033;-60
2022/08/29 02:07:36;;;;;;;9.43;4.63;;;;;;;12.44;nan;102085.81;5034245;28;20090;-61
2022/08/29 02:10:03;;;;;;;7.15;4.75;;;;;;;12.41;nan;102086.75;5051848;28;20090;-61
2022/08/29 02:12:30;;;;;;;7.20;5.15;;;;;;;12.77;nan;102140.59;5051407;28;20033;-62
2022/08/29 02:14:55;;;;;;;8.30;4.32;;;;;;;12.67;nan;102131.13;5051583;28;20115;-61
2022/08/29 02:17:22;;;;;;;7.55;5.28;;;;;;;12.68;nan;102132.00;5033850;28;20171;-62
2022/08/29 02:19:47;;;;;;;7.70;5.10;;;;;;;12.73;nan;102132.75;5033908;28;20033;-63
2022/08/29 02:22:13;;;;;;;9.27;4.82;;;;;;;12.68;nan;102129.34;5051474;28;20377;-63
2022/08/29 02:24:38;;;;;;;5.55;4.22;;;;;;;12.72;nan;102126.63;5051723;28;20068;-60
2022/08/29 02:27:03;;;;;;;7.93;5.28;;;;;;;12.65;nan;102121.50;5051538;28;20033;-61
2022/08/29 02:29:29;;;;;;;9.68;5.30;;;;;;;12.68;nan;102142.56;5051571;28;20068;-61
2022/08/29 02:31:54;;;;;;;7.05;5.18;;;;;;;12.61;nan;102133.88;5051724;28;20483;-61
2022/08/29 02:34:19;;;;;;;6.30;4.78;;;;;;;12.62;nan;102132.13;5052786;28;20029;-61
2022/08/29 02:36:45;;;;;;;7.28;4.97;;;;;;;12.59;nan;102143.63;5055526;28;20033;-62
2022/08/29 02:39:10;;;;;;;8.35;5.38;;;;;;;12.57;nan;102132.22;5055420;28;20480;-62
2022/08/29 02:41:36;;;;;;;7.30;5.50;;;;;;;12.54;nan;102129.66;5055040;28;20048;-62
2022/08/29 02:44:02;;;;;;;7.47;5.70;;;;;;;12.57;nan;102131.34;5055236;28;20033;-60
2022/08/29 02:46:27;;;;;;;6.90;5.18;;;;;;;12.58;nan;102143.66;5020606;28;20033;-60
2022/08/29 02:48:53;;;;;;;6.57;4.75;;;;;;;12.59;nan;102137.47;5055312;28;20392;-63
2022/08/29 02:51:26;;;;;;;5.80;5.00;;;;;;;12.32;nan;102093.97;5055120;28;20030;-61
2022/08/29 02:53:52;;;;;;;9.10;6.10;;;;;;;12.57;nan;102137.50;5037402;28;20021;-61
2022/08/29 02:56:18;;;;;;;5.85;4.60;;;;;;;12.55;nan;102143.72;5055040;28;20392;-61
2022/08/29 02:58:44;;;;;;;7.28;5.50;;;;;;;12.45;nan;102132.47;5037323;28;20029;-62
2022/08/29 03:01:10;;;;;;;6.82;5.38;;;;;;;12.09;nan;102070.69;5036914;28;20037;-61
2022/08/29 03:03:35;;;;;;;7.30;5.10;;;;;;;12.04;nan;102059.34;5054864;28;20060;-61
2022/08/29 03:06:01;;;;;;;6.88;4.95;;;;;;;12.35;nan;102118.56;5054912;28;20444;-61
2022/08/29 03:08:26;;;;;;;7.72;4.97;;;;;;;12.44;nan;102138.63;5036870;28;20083;-61
2022/08/29 03:10:52;;;;;;;5.95;5.20;;;;;;;12.43;nan;102129.84;5054700;28;20455;-62
2022/08/29 03:13:18;;;;;;;5.65;4.55;;;;;;;12.41;nan;102125.50;5054542;28;20053;-61
2022/08/29 03:15:44;;;;;;;6.22;4.65;;;;;;;12.33;nan;102130.94;5054558;28;20025;-61
2022/08/29 03:18:09;;;;;;;9.05;4.95;;;;;;;12.38;nan;102117.63;5054272;28;20377;-63
2022/08/29 03:20:36;;;;;;;6.15;4.78;;;;;;;12.05;nan;102070.78;5054544;28;20044;-63
2022/08/29 03:23:02;;;;;;;6.60;4.43;;;;;;;12.33;nan;102124.78;5054342;28;20441;-61
2022/08/29 03:25:27;;;;;;;5.90;4.28;;;;;;;12.25;nan;102110.84;5054376;28;20040;-64
2022/08/29 03:27:52;;;;;;;5.53;4.43;;;;;;;12.07;nan;102087.44;5054297;28;20037;-60
2022/08/29 03:30:18;;;;;;;8.05;4.53;;;;;;;12.25;nan;102121.41;5054223;28;20468;-62
2022/08/29 03:32:44;;;;;;;6.10;4.72;;;;;;;11.58;nan;102003.91;5036177;28;20495;-61
2022/08/29 03:35:11;;;;;;;6.60;4.47;;;;;;;12.14;nan;102102.28;5054291;28;20033;-61
2022/08/29 03:37:36;;;;;;;13.50;4.47;;;;;;;12.10;nan;102105.88;5036243;28;20036;-62
2022/08/29 03:40:04;;;;;;;8.75;4.70;;;;;;;11.94;nan;102076.22;5054140;28;20033;-61
2022/08/29 03:42:29;;;;;;;9.52;5.00;;;;;;;12.15;nan;102111.91;5036140;28;20037;-61
2022/08/29 03:44:55;;;;;;;5.43;4.32;;;;;;;12.07;nan;102098.88;5054314;28;20033;-61
2022/08/29 03:47:20;;;;;;;7.57;4.65;;;;;;;11.88;nan;102065.78;5053567;28;20060;-64
2022/08/29 03:49:45;;;;;;;8.35;5.25;;;;;;;11.88;nan;102065.78;5053969;28;20072;-61
2022/08/29 03:52:11;;;;;;;8.52;4.85;;;;;;;12.09;nan;102098.84;5054287;28;20041;-62
2022/08/29 03:54:36;;;;;;;6.28;3.95;;;;;;;12.06;nan;102096.25;5053894;28;20379;-60
2022/08/29 03:57:05;;;;;;;5.97;4.25;;;;;;;12.08;nan;102092.72;5036030;28;20037;-61
2022/08/29 03:59:31;;;;;;;5.30;4.43;;;;;;;12.07;nan;102096.25;5019534;28;20055;-61
2022/08/29 04:01:57;;;;;;;9.75;4.63;;;;;;;12.08;nan;102100.63;5036083;28;20465;-61
2022/08/29 04:07:07;;;;;;;7.93;5.10;;;;;;;12.08;nan;102094.47;5053987;28;20558;-62
2022/08/29 04:09:32;;;;;;;6.95;4.43;;;;;;;12.07;nan;102095.38;5053340;28;20049;-60
2022/08/29 04:11:58;;;;;;;7.05;4.75;;;;;;;12.06;nan;102093.59;5053410;28;20043;-62
2022/08/29 04:14:24;;;;;;;6.28;4.22;;;;;;;12.07;nan;102090.09;5053593;28;20045;-61
2022/08/29 04:16:49;;;;;;;6.45;4.70;;;;;;;12.07;nan;102098.00;5053341;28;20044;-63
2022/08/29 04:19:16;;;;;;;7.10;5.10;;;;;;;11.97;nan;102093.78;5035744;28;20116;-62
2022/08/29 04:21:41;;;;;;;7.20;4.90;;;;;;;11.72;nan;102054.66;5053296;28;20036;-61
2022/08/29 04:24:07;;;;;;;6.05;4.38;;;;;;;11.77;nan;102057.22;5053305;28;20037;-62
2022/08/29 04:26:32;;;;;;;6.03;4.50;;;;;;;12.00;nan;102106.91;5053408;28;20044;-61
2022/08/29 04:28:57;;;;;;;6.45;4.90;;;;;;;11.95;nan;102104.38;5053181;28;20041;-61
2022/08/29 04:31:23;;;;;;;8.50;4.65;;;;;;;12.01;nan;102108.66;5035266;28;20167;-63
2022/08/29 04:33:51;;;;;;;6.35;4.70;;;;;;;11.74;nan;102058.13;5053033;28;20104;-62
2022/08/29 04:36:17;;;;;;;8.98;5.28;;;;;;;11.97;nan;102097.28;5053036;28;20029;-61
2022/08/29 04:38:42;;;;;;;5.00;4.50;;;;;;;12.12;nan;102118.13;5053009;28;20037;-61
2022/08/29 04:41:13;;;;;;;6.78;5.03;;;;;;;12.12;nan;102107.56;5053027;28;20029;-62
2022/08/29 04:43:39;;;;;;;10.70;6.95;;;;;;;12.23;nan;102118.78;5053059;28;20035;-61
2022/08/29 04:46:05;;;;;;;17.45;10.15;;;;;;;12.27;nan;102117.84;5053155;28;20044;-61
2022/08/29 04:48:30;;;;;;;13.95;8.70;;;;;;;12.36;nan;102124.72;5035129;28;20041;-61
2022/08/29 04:50:57;;;;;;;10.18;7.88;;;;;;;12.21;nan;102090.69;5052809;28;20079;-65
2022/08/29 04:53:23;;;;;;;7.53;5.68;;;;;;;12.46;nan;102136.84;5052608;28;20488;-62
2022/08/29 04:56:01;;;;;;;7.72;5.10;;;;;;;12.49;nan;102141.19;5052447;28;20369;-60
2022/08/29 04:58:26;;;;;;;8.68;4.95;;;;;;;12.23;nan;102076.56;5051527;28;20422;-64
2022/08/29 05:00:52;;;;;;;8.48;4.88;;;;;;;12.31;nan;102074.66;5034731;28;20091;-60
2022/08/29 05:03:18;;;;;;;6.70;4.50;;;;;;;12.63;nan;102112.75;5034496;28;20029;-63
2022/08/29 05:05:44;;;;;;;8.45;4.53;;;;;;;12.77;nan;102132.69;5052458;28;20037;-60
2022/08/29 05:08:09;;;;;;;5.00;4.32;;;;;;;12.78;nan;102121.19;5052298;28;20120;-59
2022/08/29 05:10:36;;;;;;;7.15;4.13;;;;;;;12.90;nan;102122.72;5052518;28;20044;-61
2022/08/29 05:13:01;;;;;;;8.93;4.80;;;;;;;12.95;nan;102136.72;5052375;28;20049;-60
2022/08/29 05:15:27;;;;;;;6.25;4.55;;;;;;;12.93;nan;102122.63;5034513;28;20032;-62
2022/08/29 05:17:53;;;;;;;8.73;4.50;;;;;;;13.07;nan;102147.03;5052142;28;20339;-61
2022/08/29 05:20:19;;;;;;;8.02;4.30;;;;;;;12.90;nan;102107.72;5050277;28;20041;-60
2022/08/29 05:22:45;;;;;;;6.78;4.63;;;;;;;13.17;nan;102145.06;5033735;28;20040;-63
2022/08/29 05:25:11;;;;;;;5.90;4.65;;;;;;;13.23;nan;102140.50;5052190;28;20033;-62
2022/08/29 05:27:39;;;;;;;8.63;4.88;;;;;;;13.31;nan;102153.56;5033845;28;20121;-62
2022/08/29 05:30:05;;;;;;;6.53;4.60;;;;;;;13.36;nan;102155.19;5051876;28;20044;-62
2022/08/29 05:32:30;;;;;;;6.18;4.68;;;;;;;13.11;nan;102100.25;5034404;28;20048;-62
2022/08/29 05:34:56;;;;;;;7.57;4.90;;;;;;;13.48;nan;102154.06;5052212;28;20396;-64
2022/08/29 05:37:22;;;;;;;7.53;4.13;;;;;;;13.51;nan;102153.97;5052071;28;20032;-61
2022/08/29 05:39:48;;;;;;;7.07;4.50;;;;;;;13.27;nan;102099.88;5052031;28;20045;-61
2022/08/29 05:42:15;;;;;;;6.53;4.97;;;;;;;13.65;nan;102156.28;5052046;28;20039;-62
2022/08/29 05:44:41;;;;;;;7.15;4.90;;;;;;;13.39;nan;102096.94;5034125;28;20467;-63
2022/08/29 05:47:09;;;;;;;6.50;4.85;;;;;;;13.53;nan;102113.34;5034226;28;20135;-62
2022/08/29 05:49:36;;;;;;;7.28;4.75;;;;;;;13.77;nan;102151.56;5033930;28;20108;-60
2022/08/29 05:52:01;;;;;;;9.18;5.30;;;;;;;13.58;nan;102113.22;5034377;28;20060;-59
2022/08/29 05:54:27;;;;;;;7.70;5.60;;;;;;;13.83;nan;102147.91;5051891;28;20068;-60
2022/08/29 05:56:52;;;;;;;7.75;5.00;;;;;;;13.75;nan;102123.38;5051991;28;20369;-60
2022/08/29 05:59:18;;;;;;;7.07;5.18;;;;;;;14.02;nan;102151.81;5034193;28;20403;-62
2022/08/29 06:01:45;;;;;;;7.45;5.05;;;;;;;14.10;nan;102147.16;5033925;28;20557;-60
2022/08/29 06:04:11;;;;;;;7.25;5.82;;;;;;;14.24;nan;102173.31;5017546;28;20385;-60
2022/08/29 06:06:38;;;;;;;6.68;5.90;;;;;;;14.31;nan;102181.03;5052154;28;20110;-59
2022/08/29 06:09:03;;;;;;;10.75;6.35;;;;;;;14.26;nan;102153.81;5052927;28;20045;-60
2022/08/29 06:11:30;;;;;;;6.07;5.35;;;;;;;14.42;nan;102175.47;5055549;28;20041;-60
2022/08/29 06:13:58;;;;;;;8.30;5.65;;;;;;;14.50;nan;102169.09;5055352;28;20135;-60
2022/08/29 06:16:24;;;;;;;6.22;5.50;;;;;;;14.68;nan;102180.09;5038267;28;20388;-62
2022/08/29 06:18:50;;;;;;;7.07;4.78;;;;;;;14.54;nan;102127.44;5055575;28;20037;-58
2022/08/29 06:21:15;;;;;;;9.40;5.40;;;;;;;14.95;nan;102173.97;5037962;28;20448;-58
2022/08/29 06:23:42;;;;;;;10.65;5.60;;;;;;;14.99;nan;102176.50;5055499;28;20032;-60
2022/08/29 06:26:09;;;;;;;10.40;5.32;;;;;;;15.06;nan;102193.13;5037664;28;20025;-60
2022/08/29 06:28:36;;;;;;;8.27;5.63;;;;;;;15.04;nan;102163.97;5037547;28;20064;-60
2022/08/29 06:31:14;;;;;;;6.70;4.90;;;;;;;15.20;nan;102173.22;5055567;28;20039;-59
2022/08/29 06:33:39;;;;;;;6.97;5.20;;;;;;;15.09;nan;102134.69;5055408;28;20041;-58
2022/08/29 06:36:06;;;;;;;11.98;5.70;;;;;;;15.21;nan;102139.56;5055423;28;20040;-56
2022/08/29 06:38:32;;;;;;;7.85;4.97;;;;;;;15.49;nan;102164.38;5037024;28;20029;-61
2022/08/29 06:41:02;;;;;;;9.95;4.93;;;;;;;15.65;nan;102178.00;5054372;28;20052;-61
2022/08/29 06:43:28;;;;;;;8.73;4.20;;;;;;;15.44;nan;102128.28;5054622;28;20459;-57
2022/08/29 06:45:53;;;;;;;7.40;4.28;;;;;;;15.89;nan;102181.66;5037128;28;20033;-58
2022/08/29 06:48:19;;;;;;;6.95;4.32;;;;;;;15.74;nan;102138.78;5054813;28;20497;-59
2022/08/29 06:50:44;;;;;;;5.97;4.15;;;;;;;16.09;nan;102187.16;5037318;28;20037;-60
2022/08/29 06:53:09;;;;;;;7.97;3.88;;;;;;;16.00;nan;102163.56;5054852;28;20061;-58
2022/08/29 06:55:35;;;;;;;7.90;4.10;;;;;;;16.01;nan;102144.94;5036840;28;20060;-61
2022/08/29 06:58:00;;;;;;;6.72;3.83;;;;;;;16.09;nan;102153.50;5037148;28;20021;-58
2022/08/29 07:00:26;;;;;;;5.15;3.40;;;;;;;16.19;nan;102146.97;5054782;28;20064;-59
2022/08/29 07:02:52;;;;;;;6.57;3.03;;;;;;;16.19;nan;102135.47;5054811;28;20029;-58
2022/08/29 07:05:18;;;;;;;5.68;3.63;;;;;;;16.53;nan;102169.69;5036993;28;20096;-59
2022/08/29 07:07:43;;;;;;;8.63;4.35;;;;;;;16.66;nan;102141.78;5053169;28;20032;-61
2022/08/29 07:10:11;;;;;;;4.82;3.95;;;;;;;17.02;nan;102147.47;5053936;28;20095;-63
2022/08/29 07:12:37;;;;;;;7.18;3.80;;;;;;;17.62;nan;102203.69;5054116;28;20045;-63
2022/08/29 07:15:03;;;;;;;4.55;3.33;;;;;;;17.87;nan;102200.88;5036337;28;20036;-60
2022/08/29 07:17:28;;;;;;;7.65;3.33;;;;;;;18.13;nan;102223.78;5054673;28;20089;-59
2022/08/29 07:19:54;;;;;;;8.13;3.55;;;;;;;18.25;nan;102245.44;5035203;28;20032;-62
2022/08/29 07:22:19;;;;;;;4.43;3.40;;;;;;;18.31;nan;102241.66;5034788;28;20082;-59
2022/08/29 07:24:45;;;;;;;7.75;3.50;;;;;;;18.29;nan;102187.56;5053333;28;20033;-60
2022/08/29 07:27:11;;;;;;;5.28;3.50;;;;;;;18.67;nan;102245.47;5035173;28;20036;-61
2022/08/29 07:29:37;;;;;;;5.95;3.75;;;;;;;18.53;nan;102235.38;5035053;28;20032;-62
2022/08/29 07:32:04;;;;;;;7.00;3.60;;;;;;;18.63;nan;102262.50;5035465;28;20109;-60
2022/08/29 07:34:29;;;;;;;4.55;3.30;;;;;;;18.16;nan;102216.53;5052992;28;20052;-61
2022/08/29 07:36:55;;;;;;;3.72;2.80;;;;;;;18.14;nan;102205.06;5053102;28;20049;-61
2022/08/29 07:39:21;;;;;;;5.07;3.08;;;;;;;18.15;nan;102201.47;5053186;28;20037;-60
2022/08/29 07:41:47;;;;;;;8.27;3.38;;;;;;;18.19;nan;102213.72;5052893;28;20138;-61
2022/08/29 07:44:16;;;;;;;7.47;3.17;;;;;;;18.09;nan;102220.38;5053286;28;20484;-61
2022/08/29 07:46:42;;;;;;;6.10;3.20;;;;;;;18.16;nan;102235.16;5053217;28;20091;-60
2022/08/29 07:49:08;;;;;;;6.10;3.85;;;;;;;18.26;nan;102260.53;5034983;28;20041;-60
2022/08/29 07:51:33;;;;;;;5.97;3.60;;;;;;;18.03;nan;102225.09;5052804;28;20043;-61
2022/08/29 07:53:59;;;;;;;6.07;3.33;;;;;;;17.96;nan;102213.81;5034875;28;20044;-60
2022/08/29 07:56:28;;;;;;;6.78;3.83;;;;;;;18.12;nan;102238.03;5052509;28;20043;-62
2022/08/29 07:58:55;;;;;;;6.57;3.33;;;;;;;18.18;nan;102245.78;5052563;28;20028;-62
2022/08/29 08:01:21;;;;;;;6.13;3.38;;;;;;;18.08;nan;102215.97;5052812;28;20029;-57
2022/08/29 08:03:47;;;;;;;5.80;2.90;;;;;;;18.03;nan;102201.13;5052727;28;20410;-60
2022/08/29 08:06:12;;;;;;;7.25;3.30;;;;;;;18.32;nan;102206.09;5052525;28;20041;-63
2022/08/29 08:08:38;;;;;;;8.00;3.03;;;;;;;18.52;nan;102231.00;5052520;28;20044;-60
2022/08/29 08:11:05;;;;;;;5.30;2.72;;;;;;;18.58;nan;102234.31;5034677;28;20091;-62
2022/08/29 08:13:31;;;;;;;9.55;3.55;;;;;;;18.73;nan;102255.00;5052193;28;20139;-60
2022/08/29 08:15:56;;;;;;;6.18;3.05;;;;;;;18.82;nan;102252.78;5052198;28;20029;-60
2022/08/29 08:18:22;;;;;;;5.03;3.22;;;;;;;18.85;nan;102267.78;5034390;28;20044;-60
2022/08/29 08:20:47;;;;;;;7.55;3.20;;;;;;;18.88;nan;102270.31;5052494;28;20064;-59
2022/08/29 08:23:14;;;;;;;4.45;2.75;;;;;;;18.89;nan;102269.38;5052073;28;20064;-61
2022/08/29 08:25:40;;;;;;;7.93;3.05;;;;;;;19.17;nan;102277.91;5052026;28;20395;-60
2022/08/29 08:28:05;;;;;;;10.48;3.45;;;;;;;19.83;nan;102279.25;5051937;28;20040;-59
2022/08/29 08:30:30;;;;;;;6.35;2.95;;;;;;;20.56;nan;102276.47;5052252;28;20029;-60
2022/08/29 08:32:56;;;;;;;6.40;3.60;;;;;;;21.11;nan;102295.03;5034083;28;20029;-62
2022/08/29 08:35:21;;;;;;;5.78;3.03;;;;;;;21.63;nan;102293.91;5051631;28;20025;-62
2022/08/29 08:37:48;;;;;;;6.32;3.08;;;;;;;21.92;nan;102283.44;5033863;28;20091;-61
2022/08/29 08:40:26;;;;;;;7.43;3.60;;;;;;;21.60;nan;102234.31;5051840;28;20361;-62
2022/08/29 08:42:57;;;;;;;5.38;2.78;;;;;;;21.66;nan;102291.06;5052032;28;20419;-62
2022/08/29 08:45:25;;;;;;;;;;;;;;;21.62;nan;102297.56;5052348;28;20112;-61
2022/08/29 08:47:57;;;;;;;6.35;3.50;;;;;;;21.37;nan;102307.88;5034260;28;20379;-62
2022/08/29 08:50:42;;;;;;;8.38;3.60;;;;;;;21.09;nan;102303.16;5033855;28;20067;-63
2022/08/29 08:53:10;;;;;;;5.65;3.30;;;;;;;20.84;nan;102310.69;5051500;28;20024;-59
2022/08/29 08:55:43;;;;;;;5.07;3.15;;;;;;;20.49;nan;102292.94;5051556;28;20124;-62
2022/08/29 08:58:37;;;;;;;5.18;3.28;;;;;;;20.27;nan;102278.88;5051535;28;20029;-60
2022/08/29 09:01:14;;;;;;;5.50;2.88;;;;;;;20.39;nan;102315.72;5033526;28;20086;-60
2022/08/29 09:03:54;;;;;;;5.72;2.85;;;;;;;19.85;nan;102264.00;5033802;28;20108;-61
2022/08/29 09:06:53;;;;;;;5.72;3.28;;;;;;;19.88;nan;102311.94;5033746;28;20029;-63
2022/08/29 09:09:28;;;;;;;4.25;2.80;;;;;;;19.64;nan;102311.28;5033272;28;20392;-64
2022/08/29 09:12:31;;;;;;;7.35;3.50;;;;;;;19.73;nan;102304.66;5033383;28;20516;-64
2022/08/29 09:15:08;;;;;;;4.55;2.70;;;;;;;19.50;nan;102305.72;5031696;28;20440;-60
2022/08/29 09:17:54;;;;;;;6.13;3.10;;;;;;;19.17;nan;102296.56;5031173;28;20036;-61
2022/08/29 09:20:22;;;;;;;4.65;2.90;;;;;;;19.15;nan;102293.09;5031114;28;20504;-60
2022/08/29 09:22:58;;;;;;;5.57;2.70;;;;;;;18.91;nan;102243.50;5013971;28;20029;-59
2022/08/29 09:25:24;;;;;;;3.78;2.60;;;;;;;19.23;nan;102293.63;5013858;28;20041;-62
2022/08/29 09:27:50;;;;;;;6.13;2.70;;;;;;;19.12;nan;102239.00;4997327;28;20603;-62
2022/08/29 09:30:23;;;;;;;5.90;3.10;;;;;;;19.10;nan;102249.72;5013591;28;20053;-62
2022/08/29 09:33:07;;;;;;;5.05;3.00;;;;;;;19.65;nan;102299.69;5031216;28;20385;-61
2022/08/29 09:35:45;;;;;;;4.28;2.40;;;;;;;19.27;nan;102251.63;5013521;28;20041;-61
2022/08/29 09:38:16;;;;;;;4.95;2.85;;;;;;;19.71;nan;102289.63;5031191;28;20064;-61
2022/08/29 09:40:55;;;;;;;6.80;3.30;;;;;;;19.51;nan;102243.38;5031391;28;20042;-60
2022/08/29 09:43:39;;;;;;;4.57;2.63;;;;;;;19.67;nan;102298.75;5030562;28;20553;-59
2022/08/29 09:46:15;;;;;;;4.57;2.92;;;;;;;19.59;nan;102291.94;5031346;28;20033;-60
2022/08/29 09:48:46;;;;;;;6.88;2.65;;;;;;;19.65;nan;102288.13;5030895;28;20048;-58
2022/08/29 09:51:31;;;;;;;4.78;3.40;;;;;;;19.49;nan;102287.13;5030987;28;20056;-61
2022/08/29 09:54:25;;;;;;;5.07;2.70;;;;;;;19.53;nan;102283.34;5031029;28;20044;-64
2022/08/29 09:56:56;;;;;;;4.05;2.22;;;;;;;19.59;nan;102280.41;5013405;28;20036;-59
2022/08/29 09:59:28;;;;;;;4.45;2.65;;;;;;;19.57;nan;102277.81;5013269;28;20025;-60
2022/08/29 10:02:15;;;;;;;6.78;2.70;;;;;;;19.62;nan;102277.59;5031070;28;20026;-65
2022/08/29 10:04:43;;;;;;;5.63;2.90;;;;;;;19.69;nan;102268.34;5030732;28;20488;-63
2022/08/29 10:07:12;;;;;;;9.02;2.65;;;;;;;19.82;nan;102282.00;5013216;28;20030;-61
2022/08/29 10:09:38;;;;;;;3.55;2.30;;;;;;;19.85;nan;102282.69;5012953;28;20583;-63
2022/08/29 10:12:13;;;;;;;4.68;2.35;;;;;;;19.64;nan;102268.56;5030632;28;20189;-60
2022/08/29 10:14:47;;;;;;;8.23;2.78;;;;;;;19.21;nan;102242.09;5032166;28;20045;-60
2022/08/29 10:20:09;;;;;;;4.93;2.53;;;;;;;18.75;nan;102229.09;5035841;28;20047;-60
2022/08/29 10:22:36;;;;;;;6.00;2.55;;;;;;;18.94;nan;102283.41;5032763;28;20036;-60
2022/08/29 10:25:07;;;;;;;4.05;2.58;;;;;;;18.79;nan;102292.94;5032663;28;20043;-60
2022/08/29 10:27:52;;;;;;;;;;;;;;;18.74;nan;102275.41;5050795;28;20033;-63
2022/08/29 10:30:39;;;;;;;5.55;2.90;;;;;;;18.64;nan;102287.38;5032459;28;19912;-62
2022/08/29 10:33:13;;;;;;;9.70;3.00;;;;;;;18.54;nan;102284.25;5050403;28;20127;-65
2022/08/29 10:35:53;;;;;;;5.32;2.55;;;;;;;18.26;nan;102223.22;5032636;28;20114;-62
2022/08/29 10:38:49;;;;;;;5.03;2.95;;;;;;;18.61;nan;102271.50;5016095;28;20036;-63
2022/08/29 10:41:41;;;;;;;7.30;3.30;;;;;;;18.70;nan;102287.13;5032541;28;20455;-62
2022/08/29 10:44:43;;;;;;;6.40;2.15;;;;;;;18.74;nan;102256.72;5032476;28;20563;-61
2022/08/29 10:47:12;;;;;;;5.45;2.60;;;;;;;18.97;nan;102269.91;5019901;28;20053;-64
2022/08/29 10:50:15;;;;;;;6.45;2.55;;;;;;;19.25;nan;102266.84;5032415;28;20480;-61
2022/08/29 10:52:40;;;;;;;4.82;2.80;;;;;;;19.84;nan;102266.75;5050429;28;20033;-62
2022/08/29 10:55:27;;;;;;;5.40;3.17;;;;;;;20.25;nan;102273.63;5051539;28;20029;-61
2022/08/29 10:58:26;;;;;;;5.97;3.35;;;;;;;20.38;nan;102280.09;5051659;28;20310;-62
2022/08/29 11:01:05;;;;;;;5.50;3.50;;;;;;;20.37;nan;102251.63;5052154;28;20041;-63
2022/08/29 11:03:38;;;;;;;5.90;3.00;;;;;;;20.38;nan;102266.72;5034619;28;20029;-61
2022/08/29 11:06:17;;;;;;;3.42;2.22;;;;;;;20.28;nan;102273.47;5036583;28;20033;-61
2022/08/29 11:08:52;;;;;;;5.03;2.60;;;;;;;20.37;nan;102261.47;5036031;28;20129;-64
2022/08/29 11:11:19;;;;;;;7.13;3.30;;;;;;;20.09;nan;102198.63;5054283;28;20036;-62
2022/08/29 11:13:58;;;;;;;11.07;3.47;;;;;;;20.57;nan;102262.16;5036657;28;20047;-63
2022/08/29 11:16:31;;;;;;;4.78;2.80;;;;;;;21.10;nan;102258.50;5036494;28;20115;-61
2022/08/29 11:19:18;;;;;;;5.15;3.08;;;;;;;22.46;nan;102273.97;5036481;28;20079;-61
2022/08/29 11:21:50;;;;;;;6.80;3.05;;;;;;;22.50;nan;102237.97;5054341;28;20021;-63
2022/08/29 11:24:17;;;;;;;3.28;2.65;;;;;;;22.26;nan;102229.56;5036497;28;20044;-62
2022/08/29 11:26:51;;;;;;;5.43;2.47;;;;;;;21.72;nan;102233.59;5054132;28;20032;-60
2022/08/29 11:29:34;;;;;;;11.40;3.38;;;;;;;21.26;nan;102211.19;5035986;28;20033;-60
2022/08/29 11:32:34;;;;;;;9.13;3.38;;;;;;;21.25;nan;102258.53;5054006;28;20486;-61
2022/08/29 11:35:21;;;;;;;9.35;3.53;;;;;;;20.59;nan;102216.59;5036448;28;20032;-61
2022/08/29 11:38:03;;;;;;;5.50;2.65;;;;;;;20.76;nan;102265.59;5054058;28;20037;-60
2022/08/29 11:40:47;;;;;;;6.32;2.92;;;;;;;20.63;nan;102251.16;5036113;28;20040;-63
2022/08/29 11:43:17;;;;;;;7.40;2.78;;;;;;;20.72;nan;102250.66;5053678;28;20033;-61
2022/08/29 11:45:42;;;;;;;4.88;3.33;;;;;;;20.65;nan;102232.34;5053714;28;20033;-60
2022/08/29 11:48:36;;;;;;;4.63;3.00;;;;;;;20.62;nan;102198.56;5053598;28;20479;-62
2022/08/29 11:51:29;;;;;;;4.65;3.03;;;;;;;21.32;nan;102248.34;5053710;28;20150;-63
2022/08/29 11:53:55;;;;;;;5.47;3.42;;;;;;;21.38;nan;102196.25;5053739;28;20033;-61
2022/08/29 11:56:27;;;;;;;7.35;3.55;;;;;;;21.98;nan;102253.59;5053687;28;20437;-60
2022/08/29 11:58:55;;;;;;;3.30;2.65;;;;;;;23.19;nan;102262.34;5036295;28;20033;-61
2022/08/29 12:01:35;;;;;;;6.78;2.92;;;;;;;24.03;nan;102211.09;5053588;28;20056;-61